createdAt,value
2024-04-25T00:00:47.397Z,337.8
2024-04-25T00:01:47.347Z,337.3
2024-04-25T00:02:47.420Z,337.2
2024-04-25T00:03:47.501Z,337.4
2024-04-25T00:04:47.333Z,338.3
2024-04-25T00:05:47.413Z,338
2024-04-25T00:06:47.367Z,337.3
2024-04-25T00:07:47.376Z,336.8
2024-04-25T00:08:47.377Z,338.4
2024-04-25T00:09:47.385Z,337.7
2024-04-25T00:10:47.376Z,337.4
2024-04-25T00:11:47.348Z,337.5
2024-04-25T00:12:47.380Z,338.7
2024-04-25T00:13:47.384Z,337.6
2024-04-25T00:14:47.356Z,337.2
2024-04-25T00:15:47.346Z,337.2
2024-04-25T00:16:47.383Z,338
2024-04-25T00:17:47.415Z,338.2
2024-04-25T00:18:47.376Z,337.2
2024-04-25T00:19:47.373Z,337.3
2024-04-25T00:20:47.378Z,338.1
2024-04-25T00:21:47.354Z,338.6
2024-04-25T00:22:47.368Z,337.4
2024-04-25T00:23:47.385Z,337.3
2024-04-25T00:24:47.357Z,337.8
2024-04-25T00:25:47.393Z,337.8
2024-04-25T00:26:47.386Z,337.2
2024-04-25T00:27:47.381Z,337.1
2024-04-25T00:28:47.384Z,337.9
2024-04-25T00:29:47.381Z,338.2
2024-04-25T00:30:47.355Z,338
2024-04-25T00:31:47.360Z,337.3
2024-04-25T00:32:47.523Z,337.5
2024-04-25T00:33:47.466Z,338.4
2024-04-25T00:34:47.364Z,337.4
2024-04-25T00:35:47.383Z,337.2
2024-04-25T00:36:47.366Z,337.6
2024-04-25T00:37:47.338Z,338.5
2024-04-25T00:38:47.375Z,337.9
2024-04-25T00:39:47.342Z,337.3
2024-04-25T00:40:47.353Z,337.1
2024-04-25T00:41:47.353Z,338
2024-04-25T00:42:47.337Z,337.5
2024-04-25T00:43:47.374Z,336.9
2024-04-25T00:44:47.363Z,337.4
2024-04-25T00:45:47.368Z,338.2
2024-04-25T00:46:47.418Z,338.4
2024-04-25T00:47:47.522Z,337.3
2024-04-25T00:48:47.394Z,337.6
2024-04-25T00:49:47.382Z,338.4
2024-04-25T00:50:47.415Z,337.9
2024-04-25T00:51:47.320Z,337.4
2024-04-25T00:52:47.366Z,337.3
2024-04-25T00:53:47.380Z,338.8
2024-04-25T00:54:47.372Z,337.9
2024-04-25T00:55:47.394Z,337.4
2024-04-25T00:56:47.372Z,337.3
2024-04-25T00:57:47.383Z,338
2024-04-25T00:58:47.363Z,338.1
2024-04-25T00:59:47.349Z,337.2
2024-04-25T01:00:47.458Z,337.3
2024-04-25T01:01:47.364Z,337.4
2024-04-25T01:02:47.540Z,338.5
2024-04-25T01:03:47.408Z,337.3
2024-04-25T01:04:47.364Z,337.3
2024-04-25T01:05:47.364Z,337.6
2024-04-25T01:06:47.373Z,337.8
2024-04-25T01:07:47.381Z,337.2
2024-04-25T01:08:47.395Z,337.3
2024-04-25T01:09:47.379Z,337.5
2024-04-25T01:10:47.394Z,338
2024-04-25T01:11:47.391Z,338.1
2024-04-25T01:12:47.373Z,337.5
2024-04-25T01:13:47.365Z,337.9
2024-04-25T01:14:47.358Z,338.4
2024-04-25T01:15:47.381Z,337.3
2024-04-25T01:16:47.402Z,337.4
2024-04-25T01:17:47.470Z,337.6
2024-04-25T01:18:47.376Z,338.8
2024-04-25T01:19:47.382Z,337.9
2024-04-25T01:20:47.382Z,337.3
2024-04-25T01:21:47.368Z,337.4
2024-04-25T01:22:47.327Z,337.8
2024-04-25T01:23:47.347Z,338.2
2024-04-25T01:24:47.362Z,337.3
2024-04-25T01:25:47.371Z,337.5
2024-04-25T01:26:47.352Z,338.3
2024-04-25T01:27:47.375Z,338.3
2024-04-25T01:28:47.346Z,337.2
2024-04-25T01:29:47.353Z,337.4
2024-04-25T01:30:47.402Z,338.4
2024-04-25T01:31:47.371Z,337.6
2024-04-25T01:32:47.471Z,337.2
2024-04-25T01:33:47.373Z,337.4
2024-04-25T01:34:47.355Z,338.9
2024-04-25T01:35:47.447Z,337.8
2024-04-25T01:36:47.370Z,337.2
2024-04-25T01:37:47.354Z,337.3
2024-04-25T01:38:47.373Z,338.1
2024-04-25T01:39:47.373Z,338.3
2024-04-25T01:40:47.391Z,337.2
2024-04-25T01:41:47.366Z,337.3
2024-04-25T01:42:47.371Z,338.3
2024-04-25T01:43:47.375Z,338.6
2024-04-25T01:44:47.361Z,337.3
2024-04-25T01:45:47.387Z,337.4
2024-04-25T01:46:47.351Z,338.5
2024-04-25T01:47:47.462Z,338
2024-04-25T01:48:47.545Z,337.4
2024-04-25T01:49:47.318Z,337.5
2024-04-25T01:50:47.381Z,337.4
2024-04-25T01:51:47.369Z,338.1
2024-04-25T01:52:47.401Z,337.3
2024-04-25T01:53:47.310Z,337.3
2024-04-25T01:54:47.355Z,337.4
2024-04-25T01:55:47.352Z,338.4
2024-04-25T01:56:47.378Z,337.3
2024-04-25T01:57:47.356Z,337.2
2024-04-25T01:58:47.367Z,337.6
2024-04-25T01:59:47.363Z,338.8
2024-04-25T02:00:47.411Z,337.3
2024-04-25T02:01:47.376Z,337.3
2024-04-25T02:02:47.465Z,337.4
2024-04-25T02:03:47.418Z,338
2024-04-25T02:04:47.392Z,338
2024-04-25T02:05:47.367Z,337.3
2024-04-25T02:06:47.381Z,337.5
2024-04-25T02:07:47.374Z,338.4
2024-04-25T02:08:47.361Z,337.8
2024-04-25T02:09:47.297Z,337.3
2024-04-25T02:10:47.341Z,337.5
2024-04-25T02:11:47.420Z,338.4
2024-04-25T02:12:47.377Z,337.7
2024-04-25T02:13:47.324Z,337
2024-04-25T02:14:47.372Z,337.4
2024-04-25T02:15:47.378Z,338.9
2024-04-25T02:16:47.378Z,337.7
2024-04-25T02:17:47.461Z,337.4
2024-04-25T02:18:47.480Z,337.4
2024-04-25T02:19:47.356Z,338
2024-04-25T02:20:47.382Z,338.4
2024-04-25T02:21:47.378Z,337.4
2024-04-25T02:22:47.408Z,337.3
2024-04-25T02:23:47.382Z,338.3
2024-04-25T02:24:47.358Z,338.4
2024-04-25T02:25:47.366Z,337.3
2024-04-25T02:26:47.338Z,337.5
2024-04-25T02:27:47.374Z,337.7
2024-04-25T02:28:47.356Z,338
2024-04-25T02:29:47.385Z,337.3
2024-04-25T02:30:47.375Z,337.3
2024-04-25T02:31:47.435Z,337.5
2024-04-25T02:32:47.465Z,338.1
2024-04-25T02:33:47.382Z,337.3
2024-04-25T02:34:47.395Z,337.1
2024-04-25T02:35:47.372Z,337.6
2024-04-25T02:36:47.392Z,338.6
2024-04-25T02:37:47.389Z,337.2
2024-04-25T02:38:47.352Z,337.2
2024-04-25T02:39:47.363Z,337.3
2024-04-25T02:40:47.339Z,338.8
2024-04-25T02:41:47.368Z,337.9
2024-04-25T02:42:47.354Z,337.3
2024-04-25T02:43:47.362Z,337.4
2024-04-25T02:44:47.383Z,338.1
2024-04-25T02:45:47.359Z,338.1
2024-04-25T02:46:47.393Z,337.2
2024-04-25T02:47:47.456Z,337.7
2024-04-25T02:48:47.403Z,338.1
2024-04-25T02:49:47.350Z,338.3
2024-04-25T02:50:47.364Z,337.2
2024-04-25T02:51:47.380Z,337.4
2024-04-25T02:52:47.387Z,338.6
2024-04-25T02:53:47.401Z,337.9
2024-04-25T02:54:47.359Z,337.4
2024-04-25T02:55:47.350Z,337.4
2024-04-25T02:56:47.463Z,338.5
2024-04-25T02:57:47.383Z,338.1
2024-04-25T02:58:47.392Z,337.3
2024-04-25T02:59:47.386Z,337.4
2024-04-25T03:00:47.413Z,338
2024-04-25T03:01:47.383Z,338.4
2024-04-25T03:02:47.527Z,337.3
2024-04-25T03:03:47.429Z,337.4
2024-04-25T03:04:47.369Z,337.6
2024-04-25T03:05:47.437Z,338.7
2024-04-25T03:06:47.362Z,337.1
2024-04-25T03:07:47.392Z,337.5
2024-04-25T03:08:47.389Z,338.1
2024-04-25T03:09:47.379Z,338.1
2024-04-25T03:10:47.378Z,337.3
2024-04-25T03:11:47.482Z,337.6
2024-04-25T03:12:47.369Z,338
2024-04-25T03:13:47.365Z,338.1
2024-04-25T03:14:47.432Z,337.8
2024-04-25T03:15:47.378Z,337.4
2024-04-25T03:16:47.345Z,337.7
2024-04-25T03:17:47.444Z,338.2
2024-04-25T03:18:47.547Z,337.1
2024-04-25T03:19:47.376Z,337.4
2024-04-25T03:20:47.378Z,337.6
2024-04-25T03:21:47.337Z,338.7
2024-04-25T03:22:47.342Z,337.7
2024-04-25T03:23:47.426Z,337.2
2024-04-25T03:24:47.391Z,337.6
2024-04-25T03:25:47.308Z,337.9
2024-04-25T03:26:47.408Z,338.1
2024-04-25T03:27:47.353Z,337.3
2024-04-25T03:28:47.357Z,337.6
2024-04-25T03:29:47.364Z,338.2
2024-04-25T03:30:47.342Z,338.3
2024-04-25T03:31:47.392Z,337.4
2024-04-25T03:32:47.537Z,337.4
2024-04-25T03:33:47.417Z,338.4
2024-04-25T03:34:47.303Z,337.8
2024-04-25T03:35:47.407Z,337.2
2024-04-25T03:36:47.360Z,337.4
2024-04-25T03:37:47.397Z,338.9
2024-04-25T03:38:47.402Z,338
2024-04-25T03:39:47.366Z,337.4
2024-04-25T03:40:47.337Z,337.4
2024-04-25T03:41:47.404Z,338.3
2024-04-25T03:42:47.391Z,338.4
2024-04-25T03:43:47.387Z,337.3
2024-04-25T03:44:47.372Z,337.3
2024-04-25T03:45:47.376Z,337.6
2024-04-25T03:46:47.389Z,338.7
2024-04-25T03:47:47.470Z,337.3
2024-04-25T03:48:47.511Z,337.4
2024-04-25T03:49:47.368Z,337.8
2024-04-25T03:50:47.408Z,337.9
2024-04-25T03:51:47.382Z,337.5
2024-04-25T03:52:47.344Z,336.8
2024-04-25T03:53:47.479Z,337.9
2024-04-25T03:54:47.355Z,338.1
2024-04-25T03:55:47.375Z,338.2
2024-04-25T03:56:47.410Z,337.3
2024-04-25T03:57:47.349Z,337.5
2024-04-25T03:58:47.369Z,339.9
2024-04-25T03:59:47.403Z,339.3
2024-04-25T04:00:47.406Z,339.6
2024-04-25T04:01:47.404Z,339.2
2024-04-25T04:02:47.459Z,339.5
2024-04-25T04:03:47.395Z,338.9
2024-04-25T04:04:47.370Z,338.9
2024-04-25T04:05:47.371Z,340
2024-04-25T04:06:47.374Z,339.1
2024-04-25T04:07:47.361Z,339.7
2024-04-25T04:08:47.403Z,339.4
2024-04-25T04:09:47.370Z,339.3
2024-04-25T04:10:47.452Z,339.3
2024-04-25T04:11:47.492Z,339.6
2024-04-25T04:12:47.375Z,339.8
2024-04-25T04:13:47.352Z,338
2024-04-25T04:14:47.424Z,338.3
2024-04-25T04:15:47.382Z,337.8
2024-04-25T04:16:47.385Z,337.3
2024-04-25T04:17:47.456Z,337.2
2024-04-25T04:18:47.365Z,338.8
2024-04-25T04:19:47.382Z,338
2024-04-25T04:20:47.421Z,337.3
2024-04-25T04:21:47.356Z,337.4
2024-04-25T04:22:47.371Z,337.7
2024-04-25T04:23:47.419Z,338.3
2024-04-25T04:24:47.373Z,337.2
2024-04-25T04:25:47.367Z,337.2
2024-04-25T04:26:47.432Z,337.9
2024-04-25T04:27:47.363Z,338.9
2024-04-25T04:28:47.332Z,337.2
2024-04-25T04:29:47.423Z,337.2
2024-04-25T04:30:47.385Z,337.8
2024-04-25T04:31:47.332Z,338
2024-04-25T04:32:47.503Z,337.1
2024-04-25T04:33:47.514Z,337.2
2024-04-25T04:34:47.382Z,337.9
2024-04-25T04:35:47.369Z,338.2
2024-04-25T04:36:47.375Z,338.2
2024-04-25T04:37:47.351Z,337.1
2024-04-25T04:38:47.353Z,337.5
2024-04-25T04:39:47.358Z,338.3
2024-04-25T04:40:47.353Z,337.1
2024-04-25T04:41:47.342Z,337.4
2024-04-25T04:42:47.358Z,337.6
2024-04-25T04:43:47.397Z,338.4
2024-04-25T04:44:49.731Z,337.8
2024-04-25T04:45:47.373Z,337.3
2024-04-25T04:46:47.393Z,337.4
2024-04-25T04:47:47.408Z,337.9
2024-04-25T04:48:47.611Z,337.7
2024-04-25T04:49:47.370Z,337.2
2024-04-25T04:50:47.384Z,337.5
2024-04-25T04:51:47.362Z,337.8
2024-04-25T04:52:47.331Z,338.7
2024-04-25T04:53:47.366Z,337.4
2024-04-25T04:54:47.331Z,337.3
2024-04-25T04:55:47.370Z,338.4
2024-04-25T04:56:47.369Z,337.6
2024-04-25T04:57:47.337Z,337.1
2024-04-25T04:58:47.375Z,337.2
2024-04-25T04:59:47.386Z,337.7
2024-04-25T05:00:47.408Z,337.6
2024-04-25T05:01:47.389Z,337.2
2024-04-25T05:02:47.421Z,337.1
2024-04-25T05:03:47.442Z,337.9
2024-04-25T05:04:47.385Z,338.2
2024-04-25T05:05:47.388Z,337.2
2024-04-25T05:06:47.378Z,337.2
2024-04-25T05:07:47.379Z,337.9
2024-04-25T05:08:47.358Z,338.4
2024-04-25T05:09:47.362Z,337.2
2024-04-25T05:10:47.349Z,337.3
2024-04-25T05:11:47.487Z,337.5
2024-04-25T05:12:47.372Z,337.8
2024-04-25T05:13:47.384Z,337.3
2024-04-25T05:14:47.400Z,337.2
2024-04-25T05:15:47.400Z,337.2
2024-04-25T05:16:47.364Z,338
2024-04-25T05:17:47.344Z,337.3
2024-04-25T05:18:47.403Z,339.8
2024-04-25T05:19:47.382Z,338.9
2024-04-25T05:20:47.408Z,339.6
2024-04-25T05:21:47.353Z,338.6
2024-04-25T05:22:47.355Z,339.2
2024-04-25T05:23:48.947Z,339.1
2024-04-25T05:24:47.355Z,339.1
2024-04-25T05:25:47.357Z,338.6
2024-04-25T05:26:47.380Z,338.6
2024-04-25T05:27:47.376Z,339.6
2024-04-25T05:28:47.374Z,338.7
2024-04-25T05:29:47.387Z,340
2024-04-25T05:30:47.453Z,339.1
2024-04-25T05:31:47.384Z,339.2
2024-04-25T05:32:47.503Z,339.1
2024-04-25T05:33:47.458Z,337.8
2024-04-25T05:34:47.338Z,337.2
2024-04-25T05:35:47.392Z,337.2
2024-04-25T05:36:47.371Z,337
2024-04-25T05:37:47.359Z,337.2
2024-04-25T05:38:47.530Z,337.2
2024-04-25T05:39:47.368Z,337.1
2024-04-25T05:40:47.362Z,337.3
2024-04-25T05:41:47.405Z,336.9
2024-04-25T05:42:47.370Z,337.2
2024-04-25T05:43:47.390Z,337.3
2024-04-25T05:44:47.382Z,337.2
2024-04-25T05:45:47.368Z,337
2024-04-25T05:46:47.359Z,337.2
2024-04-25T05:47:47.498Z,337.1
2024-04-25T05:48:47.483Z,337
2024-04-25T05:49:47.384Z,337.1
2024-04-25T05:50:47.455Z,337.1
2024-04-25T05:51:47.350Z,337
2024-04-25T05:52:47.403Z,337.2
2024-04-25T05:53:47.369Z,337.1
2024-04-25T05:54:47.380Z,337.2
2024-04-25T05:55:47.433Z,337.1
2024-04-25T05:56:47.331Z,337.1
2024-04-25T05:57:47.340Z,337
2024-04-25T05:58:47.401Z,337.4
2024-04-25T05:59:47.366Z,337.4
2024-04-25T06:00:47.400Z,336.9
2024-04-25T06:01:47.368Z,337.3
2024-04-25T06:02:47.425Z,336.9
2024-04-25T06:03:47.429Z,337.1
2024-04-25T06:04:47.377Z,337.2
2024-04-25T06:05:47.412Z,337.1
2024-04-25T06:06:47.351Z,337.3
2024-04-25T06:07:47.344Z,337
2024-04-25T06:08:47.440Z,337.2
2024-04-25T06:09:47.375Z,337.2
2024-04-25T06:10:47.635Z,337
2024-04-25T06:11:47.555Z,337.1
2024-04-25T06:12:47.483Z,336.9
2024-04-25T06:13:47.378Z,337
2024-04-25T06:14:47.402Z,336.9
2024-04-25T06:15:47.346Z,337
2024-04-25T06:16:47.389Z,337
2024-04-25T06:17:47.409Z,337.1
2024-04-25T06:18:47.361Z,337.1
2024-04-25T06:19:47.382Z,337.1
2024-04-25T06:20:47.482Z,337
2024-04-25T06:21:47.371Z,337.1
2024-04-25T06:22:47.397Z,337
2024-04-25T06:23:47.464Z,337
2024-04-25T06:24:47.379Z,337
2024-04-25T06:25:47.375Z,337.2
2024-04-25T06:26:47.402Z,337.1
2024-04-25T06:27:47.389Z,337.2
2024-04-25T06:28:47.343Z,337.2
2024-04-25T06:29:47.389Z,337.1
2024-04-25T06:30:47.375Z,337.1
2024-04-25T06:31:47.338Z,337
2024-04-25T06:32:47.483Z,337.1
2024-04-25T06:33:47.422Z,337.1
2024-04-25T06:34:47.330Z,337.3
2024-04-25T06:35:47.395Z,337
2024-04-25T06:36:47.366Z,336.9
2024-04-25T06:37:48.098Z,337.1
2024-04-25T06:38:47.409Z,336.9
2024-04-25T06:39:47.389Z,336.8
2024-04-25T06:40:47.353Z,336.9
2024-04-25T06:41:53.960Z,337
2024-04-25T06:42:47.376Z,336.9
2024-04-25T06:43:47.340Z,337.1
2024-04-25T06:44:53.174Z,337.2
2024-04-25T06:45:47.349Z,337.2
2024-04-25T06:46:47.389Z,336.7
2024-04-25T06:47:47.432Z,337.1
2024-04-25T06:48:48.700Z,337.1
2024-04-25T06:49:47.381Z,337
2024-04-25T06:50:47.427Z,337
2024-04-25T06:51:47.379Z,336.9
2024-04-25T06:52:47.339Z,336.9
2024-04-25T06:53:47.382Z,336.8
2024-04-25T06:54:47.353Z,336.7
2024-04-25T06:55:47.376Z,336.8
2024-04-25T06:56:47.367Z,336.8
2024-04-25T06:57:47.380Z,336.8
2024-04-25T06:58:47.352Z,336.9
2024-04-25T06:59:48.486Z,337.1
2024-04-25T07:00:47.374Z,336.9
2024-04-25T07:01:47.369Z,337
2024-04-25T07:02:47.340Z,336.9
2024-04-25T07:03:47.398Z,336.5
2024-04-25T07:04:47.387Z,337
2024-04-25T07:05:47.470Z,336.9
2024-04-25T07:06:47.391Z,337
2024-04-25T07:07:47.397Z,337
2024-04-25T07:08:47.391Z,336.9
2024-04-25T07:09:47.362Z,336.9
2024-04-25T07:10:47.479Z,337
2024-04-25T07:11:47.380Z,337.2
2024-04-25T07:12:47.374Z,337
2024-04-25T07:13:47.356Z,337
2024-04-25T07:14:47.406Z,336.9
2024-04-25T07:15:47.381Z,337.1
2024-04-25T07:16:47.400Z,336.8
2024-04-25T07:17:47.568Z,337
2024-04-25T07:18:47.406Z,337.1
2024-04-25T07:19:47.354Z,336.9
2024-04-25T07:20:47.404Z,337
2024-04-25T07:21:47.361Z,336.9
2024-04-25T07:22:47.387Z,336.9
2024-04-25T07:23:47.403Z,336.9
2024-04-25T07:24:47.353Z,337
2024-04-25T07:25:47.404Z,336.8
2024-04-25T07:26:47.470Z,337
2024-04-25T07:27:47.357Z,337.2
2024-04-25T07:28:47.376Z,337
2024-04-25T07:29:47.413Z,336.9
2024-04-25T07:30:47.381Z,337
2024-04-25T07:31:47.346Z,337.1
2024-04-25T07:32:47.457Z,337
2024-04-25T07:33:47.455Z,337.1
2024-04-25T07:34:47.363Z,337
2024-04-25T07:35:47.459Z,337
2024-04-25T07:36:47.343Z,336.9
2024-04-25T07:37:47.370Z,337.2
2024-04-25T07:38:47.401Z,337.1
2024-04-25T07:39:47.409Z,337.1
2024-04-25T07:40:47.376Z,336.9
2024-04-25T07:41:47.398Z,337.1
2024-04-25T07:42:47.350Z,336.8
2024-04-25T07:43:47.358Z,336.9
2024-04-25T07:44:47.415Z,337
2024-04-25T07:45:47.701Z,336.9
2024-04-25T07:46:47.351Z,337
2024-04-25T07:47:47.503Z,336.9
2024-04-25T07:48:47.442Z,336.9
2024-04-25T07:49:47.365Z,336.8
2024-04-25T07:50:47.426Z,336.8
2024-04-25T07:51:47.368Z,336.8
2024-04-25T07:52:47.394Z,336.9
2024-04-25T07:53:47.471Z,337
2024-04-25T07:54:47.356Z,336.9
2024-04-25T07:55:47.373Z,336.7
2024-04-25T07:56:47.473Z,336.9
2024-04-25T07:57:47.385Z,336.9
2024-04-25T07:58:47.359Z,336.9
2024-04-25T07:59:47.426Z,337
2024-04-25T08:00:47.404Z,337.1
2024-04-25T08:01:47.384Z,336.8
2024-04-25T08:02:49.494Z,337.1
2024-04-25T08:03:47.363Z,337.1
2024-04-25T08:04:47.362Z,336.6
2024-04-25T08:05:47.520Z,336.7
2024-04-25T08:06:47.297Z,336.8
2024-04-25T08:07:47.400Z,336.9
2024-04-25T08:08:47.397Z,336.5
2024-04-25T08:09:47.382Z,336.9
2024-04-25T08:10:47.437Z,336.8
2024-04-25T08:11:47.410Z,336.7
2024-04-25T08:12:47.371Z,336.9
2024-04-25T08:13:47.373Z,336.8
2024-04-25T08:14:47.463Z,336.8
2024-04-25T08:15:47.546Z,336.8
2024-04-25T08:16:47.355Z,336.7
2024-04-25T08:17:47.401Z,336.9
2024-04-25T08:18:47.365Z,336.6
2024-04-25T08:19:47.379Z,336.9
2024-04-25T08:20:47.374Z,336.9
2024-04-25T08:21:47.363Z,336.5
2024-04-25T08:22:47.352Z,337.1
2024-04-25T08:23:47.434Z,336.7
2024-04-25T08:24:47.332Z,337.1
2024-04-25T08:25:47.390Z,337.2
2024-04-25T08:26:47.382Z,336.8
2024-04-25T08:27:47.342Z,336.9
2024-04-25T08:28:47.375Z,337.1
2024-04-25T08:29:47.430Z,336.8
2024-04-25T08:30:47.379Z,337
2024-04-25T08:31:47.386Z,336.7
2024-04-25T08:32:47.562Z,337.2
2024-04-25T08:33:47.557Z,337.1
2024-04-25T08:34:47.390Z,337
2024-04-25T08:35:47.465Z,337
2024-04-25T08:36:47.365Z,336.9
2024-04-25T08:37:47.387Z,336.9
2024-04-25T08:38:50.304Z,337.1
2024-04-25T08:39:47.381Z,337.1
2024-04-25T08:40:47.396Z,337
2024-04-25T08:41:47.380Z,337.1
2024-04-25T08:42:47.372Z,336.9
2024-04-25T08:43:47.381Z,337
2024-04-25T08:44:47.388Z,336.9
2024-04-25T08:45:47.373Z,336.8
2024-04-25T08:46:47.486Z,337.1
2024-04-25T08:47:47.434Z,337
2024-04-25T08:48:47.359Z,337.1
2024-04-25T08:49:47.373Z,337.1
2024-04-25T08:50:47.415Z,336.9
2024-04-25T08:51:47.351Z,336.9
2024-04-25T08:52:47.386Z,337.1
2024-04-25T08:53:47.347Z,337
2024-04-25T08:54:47.358Z,336.7
2024-04-25T08:55:47.372Z,336.8
2024-04-25T08:56:47.334Z,337
2024-04-25T08:57:47.375Z,336.7
2024-04-25T08:58:47.355Z,336.9
2024-04-25T08:59:47.392Z,336.8
2024-04-25T09:00:47.321Z,337
2024-04-25T09:01:47.343Z,336.8
2024-04-25T09:02:47.429Z,336.9
2024-04-25T09:03:47.383Z,336.8
2024-04-25T09:04:47.356Z,336.8
2024-04-25T09:05:47.497Z,336.7
2024-04-25T09:06:47.374Z,336.6
2024-04-25T09:07:47.331Z,336.9
2024-04-25T09:08:47.394Z,337
2024-04-25T09:09:47.371Z,336.9
2024-04-25T09:10:47.376Z,337
2024-04-25T09:11:47.396Z,337
2024-04-25T09:12:47.407Z,337.1
2024-04-25T09:13:47.379Z,336.6
2024-04-25T09:14:47.354Z,336.7
2024-04-25T09:15:47.395Z,336.9
2024-04-25T09:16:47.384Z,337.1
2024-04-25T09:17:47.436Z,336.6
2024-04-25T09:18:47.365Z,336.8
2024-04-25T09:19:47.406Z,336.7
2024-04-25T09:20:47.417Z,336.9
2024-04-25T09:21:47.410Z,336.9
2024-04-25T09:22:47.367Z,336.8
2024-04-25T09:23:47.472Z,337.1
2024-04-25T09:24:47.359Z,336.9
2024-04-25T09:25:48.383Z,337
2024-04-25T09:26:47.510Z,337.2
2024-04-25T09:27:47.361Z,336.9
2024-04-25T09:28:47.615Z,336.8
2024-04-25T09:29:47.392Z,336.9
2024-04-25T09:30:47.380Z,336.7
2024-04-25T09:31:47.346Z,337
2024-04-25T09:32:47.515Z,336.9
2024-04-25T09:33:47.445Z,336.9
2024-04-25T09:34:47.379Z,337.2
2024-04-25T09:35:47.387Z,337.1
2024-04-25T09:36:47.361Z,336.9
2024-04-25T09:37:47.378Z,337
2024-04-25T09:38:47.500Z,336.9
2024-04-25T09:40:50.741Z,337.1
2024-04-25T09:41:47.392Z,336.8
2024-04-25T09:42:47.421Z,336.8
2024-04-25T09:43:47.351Z,337
2024-04-25T09:44:47.376Z,337.1
2024-04-25T09:45:47.432Z,337
2024-04-25T09:46:47.401Z,337.1
2024-04-25T09:47:47.603Z,336.7
2024-04-25T09:48:47.393Z,336.9
2024-04-25T09:49:47.338Z,336.9
2024-04-25T09:50:47.469Z,336.9
2024-04-25T09:51:47.395Z,337.1
2024-04-25T09:52:47.387Z,337
2024-04-25T09:53:47.468Z,336.9
2024-04-25T09:54:47.373Z,336.9
2024-04-25T09:55:47.382Z,336.8
2024-04-25T09:56:47.380Z,336.5
2024-04-25T09:57:47.375Z,337
2024-04-25T09:58:47.374Z,336.9
2024-04-25T09:59:47.389Z,336.8
2024-04-25T10:00:47.409Z,337
2024-04-25T10:01:47.350Z,336.9
2024-04-25T10:02:47.382Z,336.9
2024-04-25T10:03:47.450Z,337.2
2024-04-25T10:04:47.371Z,337.1
2024-04-25T10:05:47.497Z,336.9
2024-04-25T10:06:47.343Z,337
2024-04-25T10:07:47.376Z,336.8
2024-04-25T10:08:47.412Z,336.9
2024-04-25T10:09:47.381Z,336.9
2024-04-25T10:10:47.528Z,336.8
2024-04-25T10:11:47.440Z,337
2024-04-25T10:12:47.343Z,337
2024-04-25T10:13:47.386Z,336.8
2024-04-25T10:14:47.957Z,337.2
2024-04-25T10:15:47.989Z,337.1
2024-04-25T10:16:47.352Z,336.9
2024-04-25T10:17:47.432Z,336.7
2024-04-25T10:18:47.474Z,336.9
2024-04-25T10:19:47.373Z,337.1
2024-04-25T10:20:47.446Z,337.1
2024-04-25T10:21:47.365Z,337
2024-04-25T10:22:47.344Z,337.1
2024-04-25T10:23:47.444Z,337.2
2024-04-25T10:24:47.356Z,336.9
2024-04-25T10:25:47.354Z,337
2024-04-25T10:26:47.409Z,337
2024-04-25T10:27:47.372Z,336.9
2024-04-25T10:28:47.374Z,337.2
2024-04-25T10:29:47.352Z,336.8
2024-04-25T10:30:47.373Z,337.1
2024-04-25T10:31:47.397Z,337
2024-04-25T10:32:47.459Z,337.1
2024-04-25T10:33:47.421Z,337.1
2024-04-25T10:34:47.356Z,337.1
2024-04-25T10:35:47.463Z,337.1
2024-04-25T10:36:47.337Z,337.1
2024-04-25T10:37:49.547Z,337.1
2024-04-25T10:38:55.649Z,337.1
2024-04-25T10:39:47.362Z,336.8
2024-04-25T10:40:47.366Z,336.9
2024-04-25T10:41:47.493Z,337.1
2024-04-25T10:42:47.385Z,336.8
2024-04-25T10:43:47.375Z,336.8
2024-04-25T10:44:47.583Z,336.9
2024-04-25T10:45:47.368Z,337.2
2024-04-25T10:46:47.389Z,336.9
2024-04-25T10:47:47.477Z,336.8
2024-04-25T10:48:47.469Z,337
2024-04-25T10:49:47.391Z,336.9
2024-04-25T10:50:47.463Z,337.2
2024-04-25T10:51:47.376Z,337.1
2024-04-25T10:52:47.364Z,337.2
2024-04-25T10:53:47.433Z,337
2024-04-25T10:54:47.372Z,337.1
2024-04-25T10:55:47.384Z,337.4
2024-04-25T10:56:47.430Z,337.1
2024-04-25T10:57:47.383Z,337.3
2024-04-25T10:58:47.352Z,337.5
2024-04-25T10:59:47.410Z,337.2
2024-04-25T11:00:47.382Z,337
2024-04-25T11:01:47.364Z,337
2024-04-25T11:02:47.497Z,337.1
2024-04-25T11:03:47.376Z,337.1
2024-04-25T11:04:47.326Z,337
2024-04-25T11:05:47.572Z,337
2024-04-25T11:06:47.382Z,336.8
2024-04-25T11:07:47.349Z,337.1
2024-04-25T11:08:47.425Z,337.2
2024-04-25T11:09:47.414Z,337
2024-04-25T11:10:47.400Z,337
2024-04-25T11:11:47.392Z,337
2024-04-25T11:12:47.383Z,337
2024-04-25T11:13:47.353Z,337.2
2024-04-25T11:14:47.509Z,337.2
2024-04-25T11:15:47.371Z,336.9
2024-04-25T11:16:47.394Z,336.9
2024-04-25T11:17:56.672Z,336.8
2024-04-25T11:18:50.180Z,336.8
2024-04-25T11:19:49.930Z,336.7
2024-04-25T11:20:47.567Z,337.2
2024-04-25T11:21:47.544Z,336.8
2024-04-25T11:22:52.331Z,337.1
2024-04-25T11:23:47.440Z,337
2024-04-25T11:24:47.369Z,336.8
2024-04-25T11:25:51.150Z,337.1
2024-04-25T11:26:47.404Z,336.9
2024-04-25T11:27:47.373Z,336.7
2024-04-25T11:28:47.405Z,337
2024-04-25T11:29:47.438Z,336.8
2024-04-25T11:30:47.354Z,337.1
2024-04-25T11:31:47.372Z,337.1
2024-04-25T11:32:47.671Z,337
2024-04-25T11:33:47.621Z,337.5
2024-04-25T11:34:47.393Z,336.9
2024-04-25T11:35:47.602Z,337.2
2024-04-25T11:36:47.402Z,337.2
2024-04-25T11:37:47.390Z,337
2024-04-25T11:38:47.386Z,336.9
2024-04-25T11:39:47.402Z,337
2024-04-25T11:40:47.365Z,337
2024-04-25T11:41:47.464Z,337
2024-04-25T11:42:47.360Z,336.7
2024-04-25T11:43:47.385Z,337.2
2024-04-25T11:44:47.439Z,337
2024-04-25T11:45:47.386Z,337
2024-04-25T11:46:47.359Z,337.8
2024-04-25T11:47:47.483Z,336.9
2024-04-25T11:48:47.508Z,336.8
2024-04-25T11:49:47.377Z,337
2024-04-25T11:50:47.535Z,337.1
2024-04-25T11:51:47.389Z,337.1
2024-04-25T11:52:47.353Z,336.9
2024-04-25T11:53:47.559Z,336.9
2024-04-25T11:54:47.416Z,336.9
2024-04-25T11:55:47.427Z,337.2
2024-04-25T11:56:47.475Z,337.4
2024-04-25T11:57:47.387Z,337.2
2024-04-25T11:58:47.345Z,337.1
2024-04-25T11:59:47.418Z,337.1
2024-04-25T12:00:47.420Z,336.8
2024-04-25T12:01:48.180Z,337.3
2024-04-25T12:02:47.434Z,337.2
2024-04-25T12:03:47.378Z,337
2024-04-25T12:04:47.402Z,337.2
2024-04-25T12:05:47.516Z,336.9
2024-04-25T12:06:47.336Z,337.1
2024-04-25T12:07:47.341Z,336.9
2024-04-25T12:08:47.390Z,337.2
2024-04-25T12:09:47.368Z,336.9
2024-04-25T12:10:47.372Z,337.1
2024-04-25T12:11:50.976Z,337.1
2024-04-25T12:12:47.395Z,337.3
2024-04-25T12:13:47.377Z,337.6
2024-04-25T12:14:47.393Z,336.9
2024-04-25T12:15:47.348Z,337.2
2024-04-25T12:16:47.369Z,337.3
2024-04-25T12:17:47.462Z,337.4
2024-04-25T12:18:47.429Z,337.2
2024-04-25T12:19:47.385Z,337.2
2024-04-25T12:20:47.514Z,337.1
2024-04-25T12:21:47.314Z,337.1
2024-04-25T12:22:47.389Z,336.9
2024-04-25T12:23:47.462Z,337.3
2024-04-25T12:24:47.478Z,337.3
2024-04-25T12:25:47.370Z,337.2
2024-04-25T12:26:47.421Z,337
2024-04-25T12:27:47.354Z,337.1
2024-04-25T12:28:47.356Z,337.1
2024-04-25T12:29:47.461Z,337.2
2024-04-25T12:30:47.336Z,337.3
2024-04-25T12:31:47.388Z,337.2
2024-04-25T12:32:47.464Z,337.3
2024-04-25T12:33:47.497Z,337.2
2024-04-25T12:34:47.357Z,337.3
2024-04-25T12:35:47.470Z,337.1
2024-04-25T12:36:47.373Z,337.2
2024-04-25T12:37:47.375Z,337.3
2024-04-25T12:38:47.413Z,337.1
2024-04-25T12:39:47.377Z,337.3
2024-04-25T12:40:47.379Z,337.1
2024-04-25T12:41:47.457Z,337.2
2024-04-25T12:42:47.385Z,337.1
2024-04-25T12:43:47.367Z,337.2
2024-04-25T12:44:47.399Z,337.4
2024-04-25T12:45:47.390Z,337.4
2024-04-25T12:46:47.389Z,336.9
2024-04-25T12:47:47.512Z,337.2
2024-04-25T12:48:47.482Z,337.1
2024-04-25T12:49:47.352Z,337.1
2024-04-25T12:50:47.356Z,337.1
2024-04-25T12:51:47.380Z,336.9
2024-04-25T12:52:47.360Z,337
2024-04-25T12:53:47.470Z,337.1
2024-04-25T12:54:47.391Z,337.3
2024-04-25T12:55:47.360Z,337.3
2024-04-25T12:56:47.406Z,337.1
2024-04-25T12:57:47.354Z,337.1
2024-04-25T12:58:47.349Z,337
2024-04-25T12:59:47.435Z,336.9
2024-04-25T13:00:47.409Z,336.8